Time;durP1;ratioP1;P1;durP2;ratioP2;P2;SDS_P1;SDS_P2;PMS_P1;PMS_P2;Temp;Humidity;BMP_temperature;BMP_pressure;BME280_temperature;BME280_humidity;BME280_pressure;Samples;Min_cycle;Max_cycle;Signal;HPM_P1;HPM_P2
2023/05/18 00:01:07;;;;;;;5.97;3.13;;;;;;;;;;4955925;28;20426;-91
2023/05/18 00:03:33;;;;;;;6.40;3.60;;;;;;;;;;4969027;28;20473;-94
2023/05/18 00:06:03;;;;;;;13.07;4.30;;;;;;;;;;4974291;28;20414;-92
2023/05/18 00:08:32;;;;;;;7.20;3.93;;;;;;;;;;4940391;28;20470;-92
2023/05/18 00:10:58;;;;;;;7.37;4.07;;;;;;;;;;4971817;28;20495;-91
2023/05/18 00:13:24;;;;;;;8.30;3.80;;;;;;;;;;4943734;28;20529;-91
2023/05/18 00:15:50;;;;;;;7.60;3.67;;;;;;;;;;4979712;28;20452;-92
2023/05/18 00:18:16;;;;;;;9.87;4.20;;;;;;;;;;4960575;28;20437;-91
2023/05/18 00:20:42;;;;;;;6.30;4.50;;;;;;;;;;4962366;28;20432;-93
2023/05/18 00:23:15;;;;;;;10.03;4.27;;;;;;;;;;4975911;28;20564;-91
2023/05/18 00:25:41;;;;;;;7.27;4.10;;;;;;;;;;4958285;28;21011;-91
2023/05/18 00:28:07;;;;;;;5.97;4.10;;;;;;;;;;4975840;28;20486;-92
2023/05/18 00:30:33;;;;;;;7.23;4.10;;;;;;;;;;4976424;28;20820;-91
2023/05/18 00:32:59;;;;;;;7.03;4.13;;;;;;;;;;4959540;28;20445;-90
2023/05/18 00:35:24;;;;;;;6.23;3.83;;;;;;;;;;4947024;28;20436;-91
2023/05/18 00:37:50;;;;;;;4.60;3.30;;;;;;;;;;4958271;28;20528;-92
2023/05/18 00:40:16;;;;;;;4.60;3.50;;;;;;;;;;4958231;28;20968;-91
2023/05/18 00:42:42;;;;;;;5.97;4.37;;;;;;;;;;4974030;28;20458;-91
2023/05/18 00:45:09;;;;;;;6.50;3.33;;;;;;;;;;4978307;28;20441;-92
2023/05/18 00:47:35;;;;;;;10.83;5.67;;;;;;;;;;4960561;28;20443;-94
2023/05/18 00:50:01;;;;;;;5.60;4.40;;;;;;;;;;4958571;28;20425;-93
2023/05/18 00:52:27;;;;;;;5.73;3.90;;;;;;;;;;4954684;28;20462;-92
2023/05/18 00:54:53;;;;;;;5.37;4.10;;;;;;;;;;4952600;28;20815;-93
2023/05/18 00:57:19;;;;;;;4.97;3.90;;;;;;;;;;4959102;28;20557;-92
2023/05/18 00:59:46;;;;;;;9.30;4.73;;;;;;;;;;4956218;28;20449;-92
2023/05/18 01:02:13;;;;;;;8.87;5.40;;;;;;;;;;4959781;28;20782;-92
2023/05/18 01:04:40;;;;;;;6.10;3.53;;;;;;;;;;4957288;28;20481;-92
2023/05/18 01:07:06;;;;;;;9.87;4.30;;;;;;;;;;4974478;28;20442;-93
2023/05/18 01:09:32;;;;;;;7.37;3.87;;;;;;;;;;4975334;28;20469;-91
2023/05/18 01:11:58;;;;;;;6.30;4.10;;;;;;;;;;4957943;28;20440;-92
2023/05/18 01:14:26;;;;;;;9.23;3.73;;;;;;;;;;4962491;28;20433;-92
2023/05/18 01:16:59;;;;;;;7.37;4.83;;;;;;;;;;4977504;28;20449;-93
2023/05/18 01:19:27;;;;;;;6.93;4.00;;;;;;;;;;4974773;28;20437;-92
2023/05/18 01:21:53;;;;;;;6.23;4.30;;;;;;;;;;4958792;28;20426;-92
2023/05/18 01:24:32;;;;;;;5.20;4.13;;;;;;;;;;4958654;28;20476;-92
2023/05/18 01:26:58;;;;;;;7.93;3.80;;;;;;;;;;4973543;28;20493;-93
2023/05/18 01:29:25;;;;;;;7.67;4.20;;;;;;;;;;4982357;28;20432;-92
2023/05/18 01:31:51;;;;;;;5.53;4.73;;;;;;;;;;4945322;28;20951;-93
2023/05/18 01:34:17;;;;;;;7.53;5.07;;;;;;;;;;4960744;28;20962;-93
2023/05/18 01:36:43;;;;;;;6.77;4.87;;;;;;;;;;4957846;28;20457;-92
2023/05/18 01:39:09;;;;;;;5.43;4.20;;;;;;;;;;4975014;28;20434;-92
2023/05/18 01:41:38;;;;;;;4.77;3.83;;;;;;;;;;4941645;29;20443;-92
2023/05/18 01:44:14;;;;;;;7.90;4.50;;;;;;;;;;4956548;28;20464;-92
2023/05/18 01:46:40;;;;;;;6.33;4.80;;;;;;;;;;4957613;28;20433;-92
2023/05/18 01:49:11;;;;;;;5.90;3.70;;;;;;;;;;4961313;28;20464;-91
2023/05/18 01:51:37;;;;;;;7.73;4.70;;;;;;;;;;4959693;28;20454;-92
2023/05/18 01:54:05;;;;;;;14.23;6.57;;;;;;;;;;4960893;28;20520;-93
2023/05/18 01:56:31;;;;;;;9.93;4.93;;;;;;;;;;4943307;28;20509;-91
2023/05/18 01:58:57;;;;;;;7.37;5.10;;;;;;;;;;4960604;28;20751;-92
2023/05/18 02:01:23;;;;;;;8.40;5.30;;;;;;;;;;4961964;28;20460;-93
2023/05/18 02:03:50;;;;;;;7.90;4.93;;;;;;;;;;4948975;28;21120;-93
2023/05/18 02:06:16;;;;;;;8.83;5.10;;;;;;;;;;4974813;28;20450;-92
2023/05/18 02:08:42;;;;;;;8.03;3.80;;;;;;;;;;4975280;28;20900;-92
2023/05/18 02:11:08;;;;;;;13.33;5.00;;;;;;;;;;4974426;28;20430;-91
2023/05/18 02:13:34;;;;;;;10.93;5.93;;;;;;;;;;4959140;28;20984;-92
2023/05/18 02:16:00;;;;;;;8.50;5.90;;;;;;;;;;4975337;28;20524;-92
2023/05/18 02:18:26;;;;;;;7.30;4.60;;;;;;;;;;4950659;28;20489;-92
2023/05/18 02:20:58;;;;;;;11.33;5.13;;;;;;;;;;4947282;28;20438;-92
2023/05/18 02:23:25;;;;;;;10.50;5.30;;;;;;;;;;4974569;28;20512;-92
2023/05/18 02:25:51;;;;;;;9.77;5.90;;;;;;;;;;4958977;28;20490;-92
2023/05/18 02:28:16;;;;;;;8.57;5.50;;;;;;;;;;4979121;28;20828;-92
2023/05/18 02:30:42;;;;;;;11.60;6.03;;;;;;;;;;4958065;28;20436;-91
2023/05/18 02:33:09;;;;;;;9.23;6.13;;;;;;;;;;4956423;28;20441;-91
2023/05/18 02:35:35;;;;;;;10.33;5.10;;;;;;;;;;4976544;28;20437;-92
2023/05/18 02:38:01;;;;;;;11.00;5.50;;;;;;;;;;4952216;28;20453;-92
2023/05/18 02:40:27;;;;;;;7.47;5.47;;;;;;;;;;4959220;28;20453;-92
2023/05/18 02:42:53;;;;;;;10.23;5.13;;;;;;;;;;4942837;28;20473;-92
2023/05/18 02:45:20;;;;;;;9.20;4.83;;;;;;;;;;4942246;28;20516;-92
2023/05/18 02:47:46;;;;;;;6.10;5.20;;;;;;;;;;4983965;28;20418;-92
2023/05/18 02:50:12;;;;;;;10.90;5.90;;;;;;;;;;4944041;28;20448;-91
2023/05/18 02:52:38;;;;;;;6.77;4.93;;;;;;;;;;4953396;28;20540;-92
2023/05/18 02:55:05;;;;;;;9.47;5.77;;;;;;;;;;4963384;28;20426;-92
2023/05/18 02:57:32;;;;;;;7.03;4.90;;;;;;;;;;4946234;28;20473;-92
2023/05/18 02:59:58;;;;;;;5.07;4.57;;;;;;;;;;4971205;28;20438;-92
2023/05/18 03:02:26;;;;;;;7.27;5.07;;;;;;;;;;4942780;28;20465;-91
2023/05/18 03:04:56;;;;;;;7.23;4.70;;;;;;;;;;4958755;28;20458;-92
2023/05/18 03:07:22;;;;;;;7.07;5.30;;;;;;;;;;4952421;28;20434;-92
2023/05/18 03:09:48;;;;;;;9.07;6.17;;;;;;;;;;4974227;28;20434;-91
2023/05/18 03:12:14;;;;;;;7.37;5.60;;;;;;;;;;4944877;28;20457;-90
2023/05/18 03:14:40;;;;;;;9.70;5.60;;;;;;;;;;4946011;28;20443;-92
2023/05/18 03:17:06;;;;;;;6.27;5.67;;;;;;;;;;4979697;28;20464;-92
2023/05/18 03:19:33;;;;;;;6.90;5.90;;;;;;;;;;4941898;28;20453;-92
2023/05/18 03:21:59;;;;;;;10.40;5.03;;;;;;;;;;4942233;28;20526;-92
2023/05/18 03:24:28;;;;;;;9.37;5.50;;;;;;;;;;4961562;28;20493;-90
2023/05/18 03:26:55;;;;;;;8.63;5.40;;;;;;;;;;4975262;28;20533;-91
2023/05/18 03:29:22;;;;;;;7.77;5.73;;;;;;;;;;4957212;28;20526;-90
2023/05/18 03:31:48;;;;;;;8.80;6.30;;;;;;;;;;4961224;28;20431;-91
2023/05/18 03:34:14;;;;;;;9.83;4.93;;;;;;;;;;4977381;28;20485;-94
2023/05/18 03:36:41;;;;;;;9.40;5.40;;;;;;;;;;4946297;28;20457;-91
2023/05/18 03:39:07;;;;;;;7.47;5.50;;;;;;;;;;4947588;28;20453;-91
2023/05/18 03:41:33;;;;;;;9.13;6.40;;;;;;;;;;4947883;28;20434;-94
2023/05/18 03:43:59;;;;;;;8.03;5.37;;;;;;;;;;4982207;28;20492;-93
2023/05/18 03:46:25;;;;;;;15.10;7.50;;;;;;;;;;4949918;28;20429;-91
2023/05/18 03:48:53;;;;;;;6.97;5.13;;;;;;;;;;4950294;28;20532;-91
2023/05/18 03:51:19;;;;;;;7.90;5.97;;;;;;;;;;4950957;28;20446;-91
2023/05/18 03:53:45;;;;;;;5.70;5.00;;;;;;;;;;4984520;28;20448;-90
2023/05/18 03:56:12;;;;;;;9.30;5.83;;;;;;;;;;4968330;28;20477;-91
2023/05/18 03:58:38;;;;;;;7.87;6.00;;;;;;;;;;4949161;28;20445;-90
2023/05/18 04:01:04;;;;;;;8.77;5.47;;;;;;;;;;4962344;28;20433;-90
2023/05/18 04:03:33;;;;;;;8.50;5.80;;;;;;;;;;4982435;28;20461;-90
2023/05/18 04:05:59;;;;;;;8.63;6.40;;;;;;;;;;4966450;28;20445;-90
2023/05/18 04:08:25;;;;;;;10.63;5.40;;;;;;;;;;4950928;28;20409;-90
2023/05/18 04:10:51;;;;;;;9.13;5.10;;;;;;;;;;4952654;28;20504;-91
2023/05/18 04:13:17;;;;;;;6.00;5.37;;;;;;;;;;4948971;28;20514;-90
2023/05/18 04:15:43;;;;;;;7.63;5.10;;;;;;;;;;4978177;28;20462;-90
2023/05/18 04:18:09;;;;;;;11.10;5.80;;;;;;;;;;4984773;28;20472;-90
2023/05/18 04:20:36;;;;;;;8.33;5.70;;;;;;;;;;4955202;28;20468;-91
2023/05/18 04:23:04;;;;;;;8.77;5.73;;;;;;;;;;4952982;28;20469;-90
2023/05/18 04:25:29;;;;;;;11.57;6.20;;;;;;;;;;4949431;28;20440;-90
2023/05/18 04:27:56;;;;;;;7.97;5.90;;;;;;;;;;4947474;28;20433;-91
2023/05/18 04:30:22;;;;;;;8.17;5.40;;;;;;;;;;4979406;28;20832;-90
2023/05/18 04:32:48;;;;;;;9.77;5.30;;;;;;;;;;4978671;28;20429;-90
2023/05/18 04:35:14;;;;;;;9.43;5.93;;;;;;;;;;4965273;28;20437;-90
2023/05/18 04:37:41;;;;;;;7.63;6.17;;;;;;;;;;4948263;28;20445;-90
2023/05/18 04:40:11;;;;;;;8.00;5.63;;;;;;;;;;4964348;28;20434;-91
2023/05/18 04:42:37;;;;;;;9.67;6.60;;;;;;;;;;4949505;28;21038;-90
2023/05/18 04:45:04;;;;;;;5.83;5.30;;;;;;;;;;4962890;28;20513;-90
2023/05/18 04:47:31;;;;;;;10.47;5.80;;;;;;;;;;4951149;28;20437;-90
2023/05/18 04:49:57;;;;;;;8.80;5.70;;;;;;;;;;4951763;28;20414;-91
2023/05/18 04:52:23;;;;;;;9.27;6.80;;;;;;;;;;4981943;28;20441;-90
2023/05/18 04:54:49;;;;;;;10.03;6.63;;;;;;;;;;4953042;28;20833;-90
2023/05/18 04:57:15;;;;;;;9.93;6.37;;;;;;;;;;4947021;28;20477;-90
2023/05/18 04:59:46;;;;;;;11.10;6.93;;;;;;;;;;4979418;28;20600;-91
2023/05/18 05:02:12;;;;;;;8.37;6.13;;;;;;;;;;4970532;28;20449;-91
2023/05/18 05:04:38;;;;;;;8.57;5.70;;;;;;;;;;4980204;28;20462;-90
2023/05/18 05:07:04;;;;;;;9.57;6.73;;;;;;;;;;4971863;28;20924;-90
2023/05/18 05:09:30;;;;;;;10.90;6.40;;;;;;;;;;4957178;28;20437;-90
2023/05/18 05:11:56;;;;;;;8.93;6.10;;;;;;;;;;4954179;28;20797;-91
2023/05/18 05:14:22;;;;;;;9.83;5.80;;;;;;;;;;4954076;28;20437;-90
2023/05/18 05:16:48;;;;;;;7.93;6.27;;;;;;;;;;4978299;28;20924;-90
2023/05/18 05:19:14;;;;;;;6.20;5.17;;;;;;;;;;4953432;28;20456;-91
2023/05/18 05:21:40;;;;;;;9.03;5.97;;;;;;;;;;4946850;28;20435;-90
2023/05/18 05:24:07;;;;;;;7.93;5.47;;;;;;;;;;4980062;28;20560;-90
2023/05/18 05:26:34;;;;;;;7.07;5.07;;;;;;;;;;4984624;28;20440;-90
2023/05/18 05:28:59;;;;;;;7.70;5.00;;;;;;;;;;4955795;28;20520;-90
2023/05/18 05:31:26;;;;;;;6.53;4.80;;;;;;;;;;4949151;28;20488;-90
2023/05/18 05:33:52;;;;;;;6.63;4.67;;;;;;;;;;4965918;28;20508;-90
2023/05/18 05:36:17;;;;;;;7.43;5.10;;;;;;;;;;4971881;28;20449;-91
2023/05/18 05:38:44;;;;;;;9.40;5.27;;;;;;;;;;4956419;28;20505;-90
2023/05/18 05:41:10;;;;;;;10.23;4.37;;;;;;;;;;4949303;28;20474;-91
2023/05/18 05:43:36;;;;;;;10.33;5.30;;;;;;;;;;4948986;29;20471;-91
2023/05/18 05:46:02;;;;;;;8.53;4.53;;;;;;;;;;4984725;28;20452;-90
2023/05/18 05:48:28;;;;;;;5.73;4.77;;;;;;;;;;4947036;28;20434;-90
2023/05/18 05:50:54;;;;;;;11.83;4.43;;;;;;;;;;4959590;28;20437;-89
2023/05/18 05:53:22;;;;;;;4.90;4.37;;;;;;;;;;4943560;28;20465;-89
2023/05/18 05:55:48;;;;;;;7.90;5.00;;;;;;;;;;4951533;28;20437;-90
2023/05/18 05:58:14;;;;;;;8.20;4.33;;;;;;;;;;4945712;28;20442;-91
2023/05/18 06:00:40;;;;;;;12.00;4.87;;;;;;;;;;4948049;28;20453;-91
2023/05/18 06:03:07;;;;;;;11.13;4.30;;;;;;;;;;4952740;28;20469;-90
2023/05/18 06:05:33;;;;;;;7.77;5.00;;;;;;;;;;4945477;28;20437;-91
2023/05/18 06:07:59;;;;;;;6.30;3.80;;;;;;;;;;4959689;28;20426;-90
2023/05/18 06:10:25;;;;;;;6.77;3.97;;;;;;;;;;4978918;28;20418;-91
2023/05/18 06:12:51;;;;;;;6.70;3.87;;;;;;;;;;4964325;28;20952;-91
2023/05/18 06:15:18;;;;;;;4.27;3.47;;;;;;;;;;4979115;28;20413;-90
2023/05/18 06:17:44;;;;;;;6.67;3.40;;;;;;;;;;4958847;28;20439;-91
2023/05/18 06:20:11;;;;;;;6.00;3.60;;;;;;;;;;4979217;28;20422;-91
2023/05/18 06:22:37;;;;;;;9.97;4.17;;;;;;;;;;4958739;28;20438;-90
2023/05/18 06:25:03;;;;;;;5.67;4.00;;;;;;;;;;4979856;28;20449;-91
2023/05/18 06:27:29;;;;;;;7.20;3.70;;;;;;;;;;4957728;28;20460;-91
2023/05/18 06:29:55;;;;;;;7.73;3.97;;;;;;;;;;4945356;28;20489;-91
2023/05/18 06:32:21;;;;;;;5.17;3.80;;;;;;;;;;4965326;28;20437;-91
2023/05/18 06:34:49;;;;;;;6.40;4.20;;;;;;;;;;4950388;28;20456;-91
2023/05/18 06:37:16;;;;;;;9.13;3.60;;;;;;;;;;4977395;28;20536;-91
2023/05/18 06:39:42;;;;;;;6.33;3.80;;;;;;;;;;4947162;28;20469;-91
2023/05/18 06:42:08;;;;;;;6.37;3.70;;;;;;;;;;4956336;28;20430;-91
2023/05/18 06:44:34;;;;;;;5.03;3.60;;;;;;;;;;4983613;28;20466;-91
2023/05/18 06:47:00;;;;;;;5.20;3.30;;;;;;;;;;4952211;28;20536;-91
2023/05/18 06:49:27;;;;;;;11.83;3.90;;;;;;;;;;4963266;28;20468;-91
2023/05/18 06:51:52;;;;;;;13.93;3.83;;;;;;;;;;4956450;28;20431;-92
2023/05/18 06:54:18;;;;;;;7.40;4.50;;;;;;;;;;4946544;28;20859;-91
2023/05/18 06:56:46;;;;;;;6.47;3.37;;;;;;;;;;4948555;28;20457;-90
2023/05/18 06:59:12;;;;;;;12.20;3.87;;;;;;;;;;4966509;28;20493;-92
2023/05/18 07:01:37;;;;;;;7.23;4.00;;;;;;;;;;4978018;28;20456;-91
2023/05/18 07:04:04;;;;;;;7.63;3.97;;;;;;;;;;4964310;28;20450;-91
2023/05/18 07:06:30;;;;;;;4.63;3.13;;;;;;;;;;4959226;28;20426;-91
2023/05/18 07:08:56;;;;;;;6.43;3.90;;;;;;;;;;4951460;28;20443;-91
2023/05/18 07:11:22;;;;;;;5.43;4.03;;;;;;;;;;4987523;28;21254;-92
2023/05/18 07:13:48;;;;;;;5.90;3.47;;;;;;;;;;4977632;28;20443;-93
2023/05/18 07:16:14;;;;;;;9.43;5.13;;;;;;;;;;4991039;28;20514;-92
2023/05/18 07:18:41;;;;;;;5.57;3.60;;;;;;;;;;4954034;28;20432;-92
2023/05/18 07:21:07;;;;;;;5.80;3.90;;;;;;;;;;4971979;28;20497;-92
2023/05/18 07:23:33;;;;;;;4.50;3.40;;;;;;;;;;4952097;28;21031;-92
2023/05/18 07:25:59;;;;;;;5.30;4.20;;;;;;;;;;4969114;28;20438;-92
2023/05/18 07:28:25;;;;;;;11.30;3.93;;;;;;;;;;4987597;28;20441;-91
2023/05/18 07:30:51;;;;;;;5.03;3.77;;;;;;;;;;4950418;28;20433;-92
2023/05/18 07:33:17;;;;;;;9.57;3.93;;;;;;;;;;4958267;28;20436;-93
2023/05/18 07:35:43;;;;;;;8.70;3.83;;;;;;;;;;4984171;28;20438;-93
2023/05/18 07:38:09;;;;;;;8.37;4.00;;;;;;;;;;4985630;28;20461;-92
2023/05/18 07:40:35;;;;;;;10.13;4.27;;;;;;;;;;4964862;28;20447;-94
2023/05/18 07:43:01;;;;;;;8.83;4.20;;;;;;;;;;4929409;29;20499;-92
2023/05/18 07:45:27;;;;;;;8.90;4.00;;;;;;;;;;4947436;28;20434;-92
2023/05/18 07:47:54;;;;;;;7.03;3.80;;;;;;;;;;4936196;28;20458;-91
2023/05/18 07:50:20;;;;;;;6.80;3.30;;;;;;;;;;4961324;28;20495;-92
2023/05/18 07:52:46;;;;;;;6.57;3.30;;;;;;;;;;4947483;29;20435;-92
2023/05/18 07:55:12;;;;;;;5.80;3.40;;;;;;;;;;4928574;29;20443;-92
2023/05/18 07:57:39;;;;;;;7.97;3.30;;;;;;;;;;4946434;28;20427;-92
2023/05/18 08:00:05;;;;;;;7.47;4.00;;;;;;;;;;4953044;28;20461;-93
2023/05/18 08:02:33;;;;;;;5.03;4.17;;;;;;;;;;4934035;28;20436;-92
2023/05/18 08:05:00;;;;;;;6.27;3.57;;;;;;;;;;4929323;29;20454;-92
2023/05/18 08:07:28;;;;;;;9.60;3.63;;;;;;;;;;4932578;28;20462;-93
2023/05/18 08:09:54;;;;;;;6.93;4.00;;;;;;;;;;4946837;29;20434;-91
2023/05/18 08:12:20;;;;;;;7.00;3.37;;;;;;;;;;4956687;28;21005;-91
2023/05/18 08:14:46;;;;;;;5.60;4.27;;;;;;;;;;4980305;28;20513;-94
2023/05/18 08:17:13;;;;;;;8.20;3.97;;;;;;;;;;4950156;28;20450;-93
2023/05/18 08:19:46;;;;;;;4.23;3.20;;;;;;;;;;4968780;28;20473;-95
2023/05/18 08:22:13;;;;;;;12.17;4.37;;;;;;;;;;4936478;29;20526;-93
2023/05/18 08:24:42;;;;;;;5.70;3.30;;;;;;;;;;4906416;29;20498;-93
2023/05/18 08:27:10;;;;;;;13.20;4.27;;;;;;;;;;4932385;28;20458;-94
2023/05/18 08:29:36;;;;;;;4.90;3.40;;;;;;;;;;4932161;29;20448;-93
2023/05/18 08:32:03;;;;;;;7.70;4.60;;;;;;;;;;4936976;29;20456;-93
2023/05/18 08:34:29;;;;;;;5.83;3.53;;;;;;;;;;4926996;29;20435;-92
2023/05/18 08:36:55;;;;;;;7.73;3.70;;;;;;;;;;4937593;29;20523;-93
2023/05/18 08:39:24;;;;;;;4.97;3.43;;;;;;;;;;4936453;29;20443;-93
2023/05/18 08:41:53;;;;;;;10.30;3.93;;;;;;;;;;4923079;29;20451;-94
2023/05/18 08:44:24;;;;;;;7.30;3.53;;;;;;;;;;4946469;29;20471;-94
2023/05/18 08:46:50;;;;;;;8.10;3.63;;;;;;;;;;4924383;29;20428;-94
2023/05/18 08:49:20;;;;;;;5.73;3.40;;;;;;;;;;4925685;29;20483;-94
2023/05/18 08:51:47;;;;;;;10.27;3.33;;;;;;;;;;4941077;29;20450;-96
2023/05/18 08:54:18;;;;;;;13.10;4.20;;;;;;;;;;4964742;28;20430;-95
2023/05/18 08:56:49;;;;;;;10.50;5.27;;;;;;;;;;4970034;28;20999;-96
2023/05/18 08:59:16;;;;;;;6.00;4.50;;;;;;;;;;4983803;28;20995;-91
2023/05/18 09:01:42;;;;;;;9.20;3.27;;;;;;;;;;4983222;28;20585;-95
2023/05/18 09:04:08;;;;;;;6.37;2.93;;;;;;;;;;4974905;28;20877;-95
2023/05/18 09:06:41;;;;;;;5.93;3.10;;;;;;;;;;4984052;28;20446;-93
2023/05/18 09:09:08;;;;;;;8.23;4.47;;;;;;;;;;4969908;28;20438;-93
2023/05/18 09:11:34;;;;;;;3.93;3.33;;;;;;;;;;4948654;28;20430;-91
2023/05/18 09:14:15;;;;;;;8.40;3.53;;;;;;;;;;4983087;28;20438;-92
2023/05/18 09:16:41;;;;;;;5.53;3.20;;;;;;;;;;4965883;28;20428;-93
2023/05/18 09:19:08;;;;;;;7.40;3.43;;;;;;;;;;4961783;28;20882;-94
2023/05/18 09:21:35;;;;;;;8.10;4.30;;;;;;;;;;4983799;28;20453;-93
2023/05/18 09:24:03;;;;;;;6.57;2.90;;;;;;;;;;4959273;28;20446;-94
2023/05/18 09:26:29;;;;;;;7.00;2.70;;;;;;;;;;4968078;28;20437;-94
2023/05/18 09:28:56;;;;;;;7.90;4.10;;;;;;;;;;4991008;28;20433;-94
2023/05/18 09:31:23;;;;;;;5.30;3.33;;;;;;;;;;4980748;28;20456;-96
2023/05/18 09:33:50;;;;;;;9.60;3.13;;;;;;;;;;4973009;28;20436;-95
2023/05/18 09:36:16;;;;;;;7.80;3.60;;;;;;;;;;4981753;28;20500;-93
2023/05/18 09:38:44;;;;;;;13.10;3.77;;;;;;;;;;4980083;28;20438;-93
2023/05/18 09:41:15;;;;;;;5.07;3.40;;;;;;;;;;4961246;28;20438;-94
2023/05/18 09:43:42;;;;;;;7.73;4.37;;;;;;;;;;4980441;28;20461;-95
2023/05/18 09:46:08;;;;;;;4.33;3.10;;;;;;;;;;4969042;28;20489;-93
2023/05/18 09:48:35;;;;;;;5.63;4.33;;;;;;;;;;4964881;28;20472;-93
2023/05/18 09:51:02;;;;;;;4.50;3.20;;;;;;;;;;4965960;28;20422;-94
2023/05/18 09:53:28;;;;;;;5.27;3.70;;;;;;;;;;4967462;28;20449;-95
2023/05/18 09:55:54;;;;;;;9.90;3.60;;;;;;;;;;4965568;28;20438;-94
2023/05/18 09:58:39;;;;;;;6.00;3.40;;;;;;;;;;4954422;28;20430;-96
2023/05/18 10:01:22;;;;;;;7.53;3.50;;;;;;;;;;4978882;28;20913;-96
2023/05/18 10:03:50;;;;;;;6.60;3.60;;;;;;;;;;4976756;28;20457;-96
2023/05/18 10:06:21;;;;;;;7.60;4.00;;;;;;;;;;4990264;28;20426;-95
2023/05/18 10:08:47;;;;;;;5.00;3.10;;;;;;;;;;4989156;28;20493;-96
2023/05/18 10:11:15;;;;;;;4.40;3.00;;;;;;;;;;4987924;28;20438;-96
2023/05/18 10:13:43;;;;;;;3.90;2.80;;;;;;;;;;4957776;28;20430;-96
2023/05/18 10:16:09;;;;;;;7.27;3.17;;;;;;;;;;4984036;28;20437;-95
2023/05/18 10:18:39;;;;;;;5.37;3.10;;;;;;;;;;4984032;28;20430;-96
2023/05/18 10:21:11;;;;;;;10.80;3.13;;;;;;;;;;4968923;28;20495;-94
2023/05/18 10:23:38;;;;;;;13.40;3.60;;;;;;;;;;4982792;28;20629;-94
2023/05/18 10:26:09;;;;;;;4.13;3.47;;;;;;;;;;4944449;28;20442;-93
2023/05/18 10:57:08;;;;;;;5.50;3.63;;;;;;;;;;1089340;23;20801;-92
2023/05/18 10:59:36;;;;;;;10.30;3.20;;;;;;;;;;4993653;28;20541;-96
2023/05/18 11:02:05;;;;;;;6.20;3.50;;;;;;;;;;4982332;28;20441;-94
2023/05/18 11:04:32;;;;;;;7.23;3.20;;;;;;;;;;5002933;28;20456;-94
2023/05/18 11:07:12;;;;;;;6.03;2.70;;;;;;;;;;4980184;28;20458;-95
2023/05/18 11:09:45;;;;;;;5.07;3.10;;;;;;;;;;4999352;28;20536;-96
2023/05/18 11:12:13;;;;;;;10.67;3.90;;;;;;;;;;4988937;28;20446;-96
2023/05/18 11:18:10;;;;;;;5.83;3.40;;;;;;;;;;4985896;28;20429;-94
2023/05/18 11:20:52;;;;;;;6.63;2.90;;;;;;;;;;4981664;28;20456;-92
2023/05/18 11:23:19;;;;;;;7.70;3.27;;;;;;;;;;4921274;29;20467;-92
2023/05/18 12:07:20;;;;;;;6.33;3.20;;;;;;;;;;4984525;28;20471;-94
2023/05/18 12:09:46;;;;;;;7.47;3.10;;;;;;;;;;4961825;28;20434;-92
2023/05/18 12:12:15;;;;;;;7.00;2.80;;;;;;;;;;4972009;28;20446;-96
2023/05/18 15:58:05;;;;;;;4.33;2.40;;;;;;;;;;4946859;29;20522;-91
2023/05/18 16:00:31;;;;;;;3.10;2.40;;;;;;;;;;4911162;29;20448;-94
2023/05/18 16:03:00;;;;;;;4.77;2.57;;;;;;;;;;4945953;29;21200;-94
2023/05/18 16:05:26;;;;;;;4.10;2.30;;;;;;;;;;4938726;29;20472;-92
2023/05/18 16:07:52;;;;;;;9.03;3.03;;;;;;;;;;4938198;29;20923;-93
2023/05/18 16:10:18;;;;;;;4.93;2.40;;;;;;;;;;4923577;29;20517;-93
2023/05/18 16:12:44;;;;;;;5.40;2.40;;;;;;;;;;4938070;29;20941;-92
2023/05/18 16:15:10;;;;;;;3.07;2.30;;;;;;;;;;4941330;29;20422;-91
2023/05/18 16:17:36;;;;;;;4.23;2.63;;;;;;;;;;4927810;29;20415;-92
2023/05/18 16:20:02;;;;;;;7.80;2.60;;;;;;;;;;4944130;29;20554;-92
2023/05/18 16:22:33;;;;;;;5.60;2.50;;;;;;;;;;4931782;29;20977;-92
2023/05/18 16:24:59;;;;;;;9.13;2.97;;;;;;;;;;4938446;29;20471;-93
2023/05/18 16:27:25;;;;;;;11.87;2.60;;;;;;;;;;4948246;29;20483;-94
2023/05/18 16:30:03;;;;;;;4.03;2.00;;;;;;;;;;4941764;29;20435;-92
2023/05/18 16:32:30;;;;;;;4.90;2.53;;;;;;;;;;4926896;29;21361;-92
2023/05/18 16:35:03;;;;;;;3.97;3.10;;;;;;;;;;4924644;29;20439;-92
2023/05/18 16:37:30;;;;;;;4.13;2.00;;;;;;;;;;4928913;29;20431;-91
2023/05/18 16:39:56;;;;;;;4.20;2.60;;;;;;;;;;4925478;29;20428;-92
2023/05/18 16:42:24;;;;;;;3.90;2.43;;;;;;;;;;4940105;29;20460;-92
2023/05/18 16:44:50;;;;;;;5.40;2.70;;;;;;;;;;4933724;29;20531;-93
2023/05/18 16:47:16;;;;;;;6.10;2.33;;;;;;;;;;4942613;29;20438;-92
2023/05/18 16:49:45;;;;;;;5.77;2.60;;;;;;;;;;4914811;29;20456;-92
2023/05/18 16:52:11;;;;;;;6.97;2.37;;;;;;;;;;4935132;29;21285;-92
2023/05/18 16:54:37;;;;;;;5.50;2.57;;;;;;;;;;4939796;29;20454;-91
2023/05/18 16:57:03;;;;;;;4.40;2.50;;;;;;;;;;4942149;29;20452;-90
2023/05/18 16:59:32;;;;;;;5.00;2.10;;;;;;;;;;4939123;28;20444;-93
2023/05/18 17:01:58;;;;;;;5.93;2.90;;;;;;;;;;4936404;29;20889;-92
2023/05/18 17:04:24;;;;;;;9.17;3.07;;;;;;;;;;4927101;29;20467;-95
2023/05/18 17:06:53;;;;;;;3.73;2.30;;;;;;;;;;4925517;29;20987;-91
2023/05/18 17:09:19;;;;;;;5.27;2.50;;;;;;;;;;4933007;29;20897;-92
2023/05/18 17:11:46;;;;;;;5.30;2.67;;;;;;;;;;4932114;29;20443;-92
2023/05/18 17:14:22;;;;;;;3.00;2.13;;;;;;;;;;4930280;29;21104;-93
2023/05/18 17:16:51;;;;;;;4.10;2.73;;;;;;;;;;4941993;29;20431;-94
2023/05/18 17:19:17;;;;;;;4.57;2.70;;;;;;;;;;4936472;29;20476;-93
2023/05/18 17:21:43;;;;;;;8.37;2.60;;;;;;;;;;4936625;29;20420;-94
2023/05/18 17:24:10;;;;;;;4.60;2.43;;;;;;;;;;4930275;29;20452;-93
2023/05/18 17:26:38;;;;;;;6.57;3.07;;;;;;;;;;4908097;29;20448;-93
2023/05/18 17:29:05;;;;;;;7.43;2.90;;;;;;;;;;4939688;29;20470;-93
2023/05/18 17:31:31;;;;;;;11.17;3.23;;;;;;;;;;4934246;29;20432;-93
2023/05/18 17:33:58;;;;;;;5.77;2.90;;;;;;;;;;4925176;29;20440;-92
2023/05/18 17:36:25;;;;;;;5.70;2.60;;;;;;;;;;4934589;29;20444;-92
2023/05/18 17:38:51;;;;;;;6.83;2.37;;;;;;;;;;4937535;29;20436;-93
2023/05/18 17:41:20;;;;;;;4.20;2.37;;;;;;;;;;4935793;29;20499;-96
2023/05/18 17:43:46;;;;;;;5.13;2.77;;;;;;;;;;4931592;29;20514;-93
2023/05/18 17:46:12;;;;;;;9.10;3.20;;;;;;;;;;4930967;29;20475;-92
2023/05/18 17:48:38;;;;;;;4.73;2.37;;;;;;;;;;4926450;29;20428;-92
2023/05/18 17:51:04;;;;;;;4.27;2.40;;;;;;;;;;4934037;29;20446;-92
2023/05/18 17:53:30;;;;;;;7.00;3.20;;;;;;;;;;4899215;29;20530;-92
2023/05/18 17:55:56;;;;;;;3.03;2.10;;;;;;;;;;4934907;29;20480;-92
2023/05/18 17:58:22;;;;;;;6.10;2.27;;;;;;;;;;4944979;29;20438;-93
2023/05/18 18:00:48;;;;;;;3.07;2.43;;;;;;;;;;4932393;29;20444;-94
2023/05/18 18:03:15;;;;;;;5.93;2.33;;;;;;;;;;4924700;29;20456;-94
2023/05/18 18:05:41;;;;;;;6.00;2.50;;;;;;;;;;4934966;29;20408;-92
2023/05/18 18:08:07;;;;;;;8.40;2.73;;;;;;;;;;4937213;29;20491;-93
2023/05/18 18:10:33;;;;;;;5.33;2.20;;;;;;;;;;4935379;29;20473;-93
2023/05/18 18:13:00;;;;;;;7.40;2.80;;;;;;;;;;4938213;29;20511;-93
2023/05/18 18:15:27;;;;;;;3.50;2.60;;;;;;;;;;4934812;29;20423;-93
2023/05/18 18:17:54;;;;;;;4.60;2.73;;;;;;;;;;4940326;29;20495;-95
2023/05/18 18:20:20;;;;;;;5.93;2.30;;;;;;;;;;4921167;29;20444;-92
2023/05/18 18:22:47;;;;;;;5.00;2.43;;;;;;;;;;4932199;29;20465;-92
2023/05/18 18:25:13;;;;;;;5.93;2.80;;;;;;;;;;4935610;29;20471;-92
2023/05/18 18:27:39;;;;;;;6.53;3.10;;;;;;;;;;4935835;29;20431;-92
2023/05/18 18:30:06;;;;;;;8.37;2.57;;;;;;;;;;4920969;29;20531;-92
2023/05/18 18:32:32;;;;;;;6.07;2.40;;;;;;;;;;4911211;29;21717;-93
2023/05/18 18:34:58;;;;;;;6.10;2.90;;;;;;;;;;4918642;29;20443;-93
2023/05/18 18:37:27;;;;;;;5.03;2.53;;;;;;;;;;4935942;29;21313;-92
2023/05/18 18:39:53;;;;;;;3.43;2.47;;;;;;;;;;4938811;29;20435;-92
2023/05/18 18:42:19;;;;;;;5.83;2.73;;;;;;;;;;4936799;29;20638;-92
2023/05/18 18:44:45;;;;;;;6.30;2.60;;;;;;;;;;4940837;29;20487;-94
2023/05/18 18:47:11;;;;;;;5.30;2.47;;;;;;;;;;4929509;29;20416;-94
2023/05/18 18:49:37;;;;;;;4.90;2.50;;;;;;;;;;4933374;29;20456;-93
2023/05/18 18:52:03;;;;;;;5.70;2.63;;;;;;;;;;4934149;29;20435;-93
2023/05/18 18:54:29;;;;;;;6.23;2.40;;;;;;;;;;4934204;29;20451;-91
2023/05/18 18:56:55;;;;;;;3.73;2.67;;;;;;;;;;4928874;29;20482;-91
2023/05/18 18:59:24;;;;;;;6.20;2.30;;;;;;;;;;4920651;29;20479;-94
2023/05/18 19:01:50;;;;;;;5.50;2.70;;;;;;;;;;4947657;29;20464;-96
2023/05/18 19:04:16;;;;;;;5.07;2.50;;;;;;;;;;4942845;29;20490;-94
2023/05/18 20:18:39;;;;;;;6.00;3.23;;;;;;;;;;4932844;29;20483;-90
2023/05/18 20:21:06;;;;;;;11.10;3.60;;;;;;;;;;4930311;29;20440;-90
2023/05/18 20:23:32;;;;;;;5.47;3.63;;;;;;;;;;4930631;29;20435;-90
2023/05/18 20:25:58;;;;;;;8.03;3.70;;;;;;;;;;4932060;29;20491;-90
2023/05/18 20:28:27;;;;;;;6.63;3.50;;;;;;;;;;4936119;29;20435;-90
2023/05/18 20:30:53;;;;;;;4.83;3.57;;;;;;;;;;4918877;29;20456;-90
2023/05/18 20:33:22;;;;;;;7.47;2.70;;;;;;;;;;4920476;29;20427;-90
2023/05/18 20:35:48;;;;;;;5.33;3.10;;;;;;;;;;4931968;29;20476;-89
2023/05/18 20:38:14;;;;;;;5.53;3.20;;;;;;;;;;4942823;29;20854;-89
2023/05/18 20:40:40;;;;;;;10.50;4.07;;;;;;;;;;4942842;29;20427;-90
2023/05/18 20:43:09;;;;;;;5.00;2.67;;;;;;;;;;4919851;29;20997;-91
2023/05/18 20:45:37;;;;;;;8.00;2.83;;;;;;;;;;4929721;29;21172;-90
2023/05/18 20:48:03;;;;;;;6.80;3.20;;;;;;;;;;4936369;29;20428;-90